sensor_id;sensor_type;location;lat;lon;timestamp;P1;durP1;ratioP1;P2;durP2;ratioP2
6898;SDS011;3488;42.616;23.350;2023-06-22T00:00:17;7.32;;;6.10;;
6898;SDS011;3488;42.616;23.350;2023-06-22T00:02:45;6.90;;;6.32;;
6898;SDS011;3488;42.616;23.350;2023-06-22T00:05:12;6.97;;;6.20;;
6898;SDS011;3488;42.616;23.350;2023-06-22T00:07:39;7.03;;;6.32;;
6898;SDS011;3488;42.616;23.350;2023-06-22T00:10:06;6.72;;;6.03;;
6898;SDS011;3488;42.616;23.350;2023-06-22T00:12:35;6.28;;;5.78;;
6898;SDS011;3488;42.616;23.350;2023-06-22T00:15:03;7.15;;;6.55;;
6898;SDS011;3488;42.616;23.350;2023-06-22T00:17:30;10.38;;;6.45;;
6898;SDS011;3488;42.616;23.350;2023-06-22T00:19:57;5.78;;;5.35;;
6898;SDS011;3488;42.616;23.350;2023-06-22T00:22:25;8.15;;;5.78;;
6898;SDS011;3488;42.616;23.350;2023-06-22T00:24:55;7.28;;;5.88;;
6898;SDS011;3488;42.616;23.350;2023-06-22T00:27:22;6.57;;;5.97;;
6898;SDS011;3488;42.616;23.350;2023-06-22T00:29:50;8.13;;;6.20;;
6898;SDS011;3488;42.616;23.350;2023-06-22T00:32:17;6.60;;;6.10;;
6898;SDS011;3488;42.616;23.350;2023-06-22T00:34:44;6.88;;;6.15;;
6898;SDS011;3488;42.616;23.350;2023-06-22T00:37:11;6.10;;;5.57;;
6898;SDS011;3488;42.616;23.350;2023-06-22T00:39:39;6.13;;;5.72;;
6898;SDS011;3488;42.616;23.350;2023-06-22T00:42:06;6.15;;;5.65;;
6898;SDS011;3488;42.616;23.350;2023-06-22T00:44:33;5.97;;;5.47;;
6898;SDS011;3488;42.616;23.350;2023-06-22T00:47:01;6.50;;;5.90;;
6898;SDS011;3488;42.616;23.350;2023-06-22T00:49:28;5.95;;;5.45;;
6898;SDS011;3488;42.616;23.350;2023-06-22T00:51:57;6.60;;;6.10;;
6898;SDS011;3488;42.616;23.350;2023-06-22T00:54:24;6.22;;;5.72;;
6898;SDS011;3488;42.616;23.350;2023-06-22T00:56:51;5.95;;;5.45;;
6898;SDS011;3488;42.616;23.350;2023-06-22T00:59:19;6.30;;;5.80;;
6898;SDS011;3488;42.616;23.350;2023-06-22T01:01:47;6.95;;;6.35;;
6898;SDS011;3488;42.616;23.350;2023-06-22T01:04:15;6.13;;;5.60;;
6898;SDS011;3488;42.616;23.350;2023-06-22T01:06:45;6.18;;;5.68;;
6898;SDS011;3488;42.616;23.350;2023-06-22T01:09:31;6.82;;;6.22;;
6898;SDS011;3488;42.616;23.350;2023-06-22T01:12:04;5.93;;;5.38;;
6898;SDS011;3488;42.616;23.350;2023-06-22T01:14:35;5.88;;;5.38;;
6898;SDS011;3488;42.616;23.350;2023-06-22T01:17:08;5.53;;;5.13;;
6898;SDS011;3488;42.616;23.350;2023-06-22T01:19:39;6.05;;;5.65;;
6898;SDS011;3488;42.616;23.350;2023-06-22T01:22:13;5.68;;;5.25;;
6898;SDS011;3488;42.616;23.350;2023-06-22T01:24:46;6.07;;;5.47;;
6898;SDS011;3488;42.616;23.350;2023-06-22T01:27:26;6.63;;;6.10;;
6898;SDS011;3488;42.616;23.350;2023-06-22T01:30:01;6.03;;;5.53;;
6898;SDS011;3488;42.616;23.350;2023-06-22T01:32:31;6.68;;;6.18;;
6898;SDS011;3488;42.616;23.350;2023-06-22T01:35:01;7.05;;;6.38;;
6898;SDS011;3488;42.616;23.350;2023-06-22T01:37:29;6.55;;;6.00;;
6898;SDS011;3488;42.616;23.350;2023-06-22T01:39:58;7.38;;;6.57;;
6898;SDS011;3488;42.616;23.350;2023-06-22T01:42:26;6.95;;;6.35;;
6898;SDS011;3488;42.616;23.350;2023-06-22T01:44:54;9.35;;;5.70;;
6898;SDS011;3488;42.616;23.350;2023-06-22T01:47:23;6.78;;;6.18;;
6898;SDS011;3488;42.616;23.350;2023-06-22T01:49:52;6.57;;;6.03;;
6898;SDS011;3488;42.616;23.350;2023-06-22T01:52:20;6.90;;;6.40;;
6898;SDS011;3488;42.616;23.350;2023-06-22T01:54:47;6.10;;;5.32;;
6898;SDS011;3488;42.616;23.350;2023-06-22T01:57:14;5.97;;;5.47;;
6898;SDS011;3488;42.616;23.350;2023-06-22T01:59:43;8.25;;;6.30;;
6898;SDS011;3488;42.616;23.350;2023-06-22T02:02:19;6.38;;;5.88;;
6898;SDS011;3488;42.616;23.350;2023-06-22T02:04:54;5.90;;;5.50;;
6898;SDS011;3488;42.616;23.350;2023-06-22T02:07:28;6.15;;;5.55;;
6898;SDS011;3488;42.616;23.350;2023-06-22T02:09:58;7.13;;;6.53;;
6898;SDS011;3488;42.616;23.350;2023-06-22T02:12:28;7.40;;;6.38;;
6898;SDS011;3488;42.616;23.350;2023-06-22T02:14:58;6.43;;;6.00;;
6898;SDS011;3488;42.616;23.350;2023-06-22T02:17:26;6.55;;;6.05;;
6898;SDS011;3488;42.616;23.350;2023-06-22T02:19:59;6.28;;;5.75;;
6898;SDS011;3488;42.616;23.350;2023-06-22T02:22:29;6.55;;;5.95;;
6898;SDS011;3488;42.616;23.350;2023-06-22T02:24:57;6.20;;;5.70;;
6898;SDS011;3488;42.616;23.350;2023-06-22T02:27:24;6.97;;;6.10;;
6898;SDS011;3488;42.616;23.350;2023-06-22T02:29:51;6.28;;;5.78;;
6898;SDS011;3488;42.616;23.350;2023-06-22T02:32:18;6.57;;;6.07;;
6898;SDS011;3488;42.616;23.350;2023-06-22T02:34:45;6.32;;;5.72;;
6898;SDS011;3488;42.616;23.350;2023-06-22T02:37:14;6.93;;;6.30;;
6898;SDS011;3488;42.616;23.350;2023-06-22T02:39:41;7.15;;;6.55;;
6898;SDS011;3488;42.616;23.350;2023-06-22T02:42:08;6.70;;;6.10;;
6898;SDS011;3488;42.616;23.350;2023-06-22T02:44:36;7.97;;;6.03;;
6898;SDS011;3488;42.616;23.350;2023-06-22T02:47:03;7.28;;;6.68;;
6898;SDS011;3488;42.616;23.350;2023-06-22T02:49:31;7.43;;;6.72;;
6898;SDS011;3488;42.616;23.350;2023-06-22T02:51:58;7.53;;;6.75;;
6898;SDS011;3488;42.616;23.350;2023-06-22T02:54:27;7.53;;;6.93;;
6898;SDS011;3488;42.616;23.350;2023-06-22T02:56:54;7.18;;;6.57;;
6898;SDS011;3488;42.616;23.350;2023-06-22T02:59:20;6.88;;;6.38;;
6898;SDS011;3488;42.616;23.350;2023-06-22T03:01:49;7.93;;;7.22;;
6898;SDS011;3488;42.616;23.350;2023-06-22T03:04:16;7.60;;;6.90;;
6898;SDS011;3488;42.616;23.350;2023-06-22T03:06:44;7.90;;;7.15;;
6898;SDS011;3488;42.616;23.350;2023-06-22T03:09:16;7.72;;;6.95;;
6898;SDS011;3488;42.616;23.350;2023-06-22T03:11:44;8.05;;;7.32;;
6898;SDS011;3488;42.616;23.350;2023-06-22T03:14:11;7.50;;;6.90;;
6898;SDS011;3488;42.616;23.350;2023-06-22T03:16:38;7.32;;;6.65;;
6898;SDS011;3488;42.616;23.350;2023-06-22T03:19:06;7.03;;;6.43;;
6898;SDS011;3488;42.616;23.350;2023-06-22T03:21:34;6.85;;;6.35;;
6898;SDS011;3488;42.616;23.350;2023-06-22T03:24:02;7.88;;;6.95;;
6898;SDS011;3488;42.616;23.350;2023-06-22T03:26:30;7.55;;;6.90;;
6898;SDS011;3488;42.616;23.350;2023-06-22T03:28:58;8.02;;;7.22;;
6898;SDS011;3488;42.616;23.350;2023-06-22T03:31:25;7.80;;;7.15;;
6898;SDS011;3488;42.616;23.350;2023-06-22T03:33:52;8.63;;;7.82;;
6898;SDS011;3488;42.616;23.350;2023-06-22T03:36:20;7.57;;;6.88;;
6898;SDS011;3488;42.616;23.350;2023-06-22T03:38:47;8.15;;;7.38;;
6898;SDS011;3488;42.616;23.350;2023-06-22T03:41:15;8.63;;;6.72;;
6898;SDS011;3488;42.616;23.350;2023-06-22T03:43:42;7.60;;;6.95;;
6898;SDS011;3488;42.616;23.350;2023-06-22T03:46:10;6.85;;;6.25;;
6898;SDS011;3488;42.616;23.350;2023-06-22T03:48:37;7.95;;;7.15;;
6898;SDS011;3488;42.616;23.350;2023-06-22T03:51:05;8.50;;;7.80;;
6898;SDS011;3488;42.616;23.350;2023-06-22T03:53:32;8.63;;;7.75;;
6898;SDS011;3488;42.616;23.350;2023-06-22T03:55:59;9.05;;;7.80;;
6898;SDS011;3488;42.616;23.350;2023-06-22T03:58:26;8.82;;;8.00;;
6898;SDS011;3488;42.616;23.350;2023-06-22T04:00:57;10.60;;;9.50;;
6898;SDS011;3488;42.616;23.350;2023-06-22T04:03:27;12.68;;;9.90;;
6898;SDS011;3488;42.616;23.350;2023-06-22T04:05:54;15.20;;;11.82;;
6898;SDS011;3488;42.616;23.350;2023-06-22T04:08:21;15.68;;;12.50;;
6898;SDS011;3488;42.616;23.350;2023-06-22T04:10:48;13.93;;;11.05;;
6898;SDS011;3488;42.616;23.350;2023-06-22T04:13:16;15.98;;;11.07;;
6898;SDS011;3488;42.616;23.350;2023-06-22T04:15:43;12.55;;;11.18;;
6898;SDS011;3488;42.616;23.350;2023-06-22T04:18:10;12.77;;;11.23;;
6898;SDS011;3488;42.616;23.350;2023-06-22T04:20:38;13.85;;;10.85;;
6898;SDS011;3488;42.616;23.350;2023-06-22T04:23:05;11.93;;;10.80;;
6898;SDS011;3488;42.616;23.350;2023-06-22T04:25:32;12.07;;;10.90;;
6898;SDS011;3488;42.616;23.350;2023-06-22T04:28:00;11.50;;;10.40;;
6898;SDS011;3488;42.616;23.350;2023-06-22T04:30:28;11.05;;;9.30;;
6898;SDS011;3488;42.616;23.350;2023-06-22T04:32:56;9.90;;;9.00;;
6898;SDS011;3488;42.616;23.350;2023-06-22T04:35:23;10.80;;;9.65;;
6898;SDS011;3488;42.616;23.350;2023-06-22T04:37:52;10.45;;;9.07;;
6898;SDS011;3488;42.616;23.350;2023-06-22T04:40:21;9.18;;;8.38;;
6898;SDS011;3488;42.616;23.350;2023-06-22T04:42:48;9.45;;;8.55;;
6898;SDS011;3488;42.616;23.350;2023-06-22T04:45:19;10.52;;;8.43;;
6898;SDS011;3488;42.616;23.350;2023-06-22T04:47:46;8.55;;;7.85;;
6898;SDS011;3488;42.616;23.350;2023-06-22T04:50:13;10.52;;;8.55;;
6898;SDS011;3488;42.616;23.350;2023-06-22T04:52:41;8.80;;;7.78;;
6898;SDS011;3488;42.616;23.350;2023-06-22T04:55:09;8.70;;;7.97;;
6898;SDS011;3488;42.616;23.350;2023-06-22T04:57:36;9.77;;;8.45;;
6898;SDS011;3488;42.616;23.350;2023-06-22T05:00:05;9.80;;;8.80;;
6898;SDS011;3488;42.616;23.350;2023-06-22T05:02:42;9.63;;;8.68;;
6898;SDS011;3488;42.616;23.350;2023-06-22T05:05:10;9.65;;;8.77;;
6898;SDS011;3488;42.616;23.350;2023-06-22T05:07:38;11.50;;;9.85;;
6898;SDS011;3488;42.616;23.350;2023-06-22T05:10:08;15.85;;;10.52;;
6898;SDS011;3488;42.616;23.350;2023-06-22T05:12:37;15.93;;;11.15;;
6898;SDS011;3488;42.616;23.350;2023-06-22T05:15:05;13.38;;;10.32;;
6898;SDS011;3488;42.616;23.350;2023-06-22T05:17:34;13.93;;;11.35;;
6898;SDS011;3488;42.616;23.350;2023-06-22T05:20:02;13.40;;;11.75;;
6898;SDS011;3488;42.616;23.350;2023-06-22T05:22:31;15.95;;;11.70;;
6898;SDS011;3488;42.616;23.350;2023-06-22T05:24:58;16.05;;;11.48;;
6898;SDS011;3488;42.616;23.350;2023-06-22T05:27:27;12.20;;;10.27;;
6898;SDS011;3488;42.616;23.350;2023-06-22T05:29:54;12.63;;;11.10;;
6898;SDS011;3488;42.616;23.350;2023-06-22T05:32:21;11.50;;;9.88;;
6898;SDS011;3488;42.616;23.350;2023-06-22T05:34:47;16.75;;;10.63;;
6898;SDS011;3488;42.616;23.350;2023-06-22T05:37:14;12.27;;;10.15;;
6898;SDS011;3488;42.616;23.350;2023-06-22T05:39:41;14.75;;;9.88;;
6898;SDS011;3488;42.616;23.350;2023-06-22T05:42:08;18.20;;;10.35;;
6898;SDS011;3488;42.616;23.350;2023-06-22T05:44:37;13.13;;;11.55;;
6898;SDS011;3488;42.616;23.350;2023-06-22T05:47:06;12.73;;;10.90;;
6898;SDS011;3488;42.616;23.350;2023-06-22T05:49:33;15.00;;;11.55;;
6898;SDS011;3488;42.616;23.350;2023-06-22T05:52:00;18.02;;;12.65;;
6898;SDS011;3488;42.616;23.350;2023-06-22T05:54:27;12.43;;;11.13;;
6898;SDS011;3488;42.616;23.350;2023-06-22T05:56:54;15.60;;;10.85;;
6898;SDS011;3488;42.616;23.350;2023-06-22T05:59:21;16.40;;;11.35;;
6898;SDS011;3488;42.616;23.350;2023-06-22T06:01:49;11.98;;;10.77;;
6898;SDS011;3488;42.616;23.350;2023-06-22T06:04:17;12.30;;;11.05;;
6898;SDS011;3488;42.616;23.350;2023-06-22T06:06:44;11.95;;;10.10;;
6898;SDS011;3488;42.616;23.350;2023-06-22T06:09:12;17.60;;;11.52;;
6898;SDS011;3488;42.616;23.350;2023-06-22T06:11:39;12.63;;;10.52;;
6898;SDS011;3488;42.616;23.350;2023-06-22T06:14:07;14.30;;;11.30;;
6898;SDS011;3488;42.616;23.350;2023-06-22T06:16:34;11.18;;;10.00;;
6898;SDS011;3488;42.616;23.350;2023-06-22T06:19:03;13.15;;;10.82;;
6898;SDS011;3488;42.616;23.350;2023-06-22T06:21:30;11.88;;;10.35;;
6898;SDS011;3488;42.616;23.350;2023-06-22T06:23:57;12.93;;;10.38;;
6898;SDS011;3488;42.616;23.350;2023-06-22T06:26:24;11.43;;;10.15;;
6898;SDS011;3488;42.616;23.350;2023-06-22T06:28:55;13.88;;;10.93;;
6898;SDS011;3488;42.616;23.350;2023-06-22T06:31:22;10.63;;;9.73;;
6898;SDS011;3488;42.616;23.350;2023-06-22T06:33:49;12.07;;;9.88;;
6898;SDS011;3488;42.616;23.350;2023-06-22T06:36:18;20.42;;;10.57;;
6898;SDS011;3488;42.616;23.350;2023-06-22T06:38:45;11.45;;;10.00;;
6898;SDS011;3488;42.616;23.350;2023-06-22T06:41:12;16.65;;;9.85;;
6898;SDS011;3488;42.616;23.350;2023-06-22T06:43:39;10.85;;;9.75;;
6898;SDS011;3488;42.616;23.350;2023-06-22T06:46:08;11.95;;;10.27;;
6898;SDS011;3488;42.616;23.350;2023-06-22T06:48:35;13.40;;;9.15;;
6898;SDS011;3488;42.616;23.350;2023-06-22T06:51:02;16.90;;;10.18;;
6898;SDS011;3488;42.616;23.350;2023-06-22T06:53:30;11.85;;;9.95;;
6898;SDS011;3488;42.616;23.350;2023-06-22T06:55:57;12.85;;;9.60;;
6898;SDS011;3488;42.616;23.350;2023-06-22T06:58:24;13.15;;;8.57;;
6898;SDS011;3488;42.616;23.350;2023-06-22T07:00:51;11.45;;;10.18;;
6898;SDS011;3488;42.616;23.350;2023-06-22T07:03:18;13.13;;;9.38;;
6898;SDS011;3488;42.616;23.350;2023-06-22T07:05:45;10.57;;;9.38;;
6898;SDS011;3488;42.616;23.350;2023-06-22T07:08:12;17.75;;;10.52;;
6898;SDS011;3488;42.616;23.350;2023-06-22T07:10:40;10.35;;;9.00;;
6898;SDS011;3488;42.616;23.350;2023-06-22T07:13:07;11.60;;;9.85;;
6898;SDS011;3488;42.616;23.350;2023-06-22T07:15:34;16.70;;;9.70;;
6898;SDS011;3488;42.616;23.350;2023-06-22T07:18:01;9.60;;;8.68;;
6898;SDS011;3488;42.616;23.350;2023-06-22T07:20:28;11.13;;;9.73;;
6898;SDS011;3488;42.616;23.350;2023-06-22T07:22:56;14.05;;;9.80;;
6898;SDS011;3488;42.616;23.350;2023-06-22T07:25:23;12.63;;;10.07;;
6898;SDS011;3488;42.616;23.350;2023-06-22T07:27:58;10.30;;;9.40;;
6898;SDS011;3488;42.616;23.350;2023-06-22T07:30:27;13.60;;;9.43;;
6898;SDS011;3488;42.616;23.350;2023-06-22T07:32:54;11.23;;;9.07;;
6898;SDS011;3488;42.616;23.350;2023-06-22T07:35:22;10.48;;;9.55;;
6898;SDS011;3488;42.616;23.350;2023-06-22T07:37:48;13.63;;;10.65;;
6898;SDS011;3488;42.616;23.350;2023-06-22T07:40:15;16.95;;;9.82;;
6898;SDS011;3488;42.616;23.350;2023-06-22T07:42:42;11.55;;;10.35;;
6898;SDS011;3488;42.616;23.350;2023-06-22T07:45:14;13.05;;;9.73;;
6898;SDS011;3488;42.616;23.350;2023-06-22T07:47:41;17.98;;;10.57;;
6898;SDS011;3488;42.616;23.350;2023-06-22T07:50:08;14.50;;;10.77;;
6898;SDS011;3488;42.616;23.350;2023-06-22T07:52:36;13.88;;;10.57;;
6898;SDS011;3488;42.616;23.350;2023-06-22T07:55:04;12.88;;;10.65;;
6898;SDS011;3488;42.616;23.350;2023-06-22T07:57:31;17.90;;;11.32;;
6898;SDS011;3488;42.616;23.350;2023-06-22T08:00:02;17.58;;;11.90;;
6898;SDS011;3488;42.616;23.350;2023-06-22T08:02:38;15.77;;;12.15;;
6898;SDS011;3488;42.616;23.350;2023-06-22T08:05:06;13.05;;;11.18;;
6898;SDS011;3488;42.616;23.350;2023-06-22T08:07:33;11.63;;;10.00;;
6898;SDS011;3488;42.616;23.350;2023-06-22T08:10:06;14.02;;;10.13;;
6898;SDS011;3488;42.616;23.350;2023-06-22T08:12:37;13.60;;;10.27;;
6898;SDS011;3488;42.616;23.350;2023-06-22T08:15:05;11.73;;;10.38;;
6898;SDS011;3488;42.616;23.350;2023-06-22T08:17:34;13.02;;;11.00;;
6898;SDS011;3488;42.616;23.350;2023-06-22T08:20:05;12.38;;;10.07;;
6898;SDS011;3488;42.616;23.350;2023-06-22T08:22:35;12.10;;;10.90;;
6898;SDS011;3488;42.616;23.350;2023-06-22T08:25:02;12.02;;;10.90;;
6898;SDS011;3488;42.616;23.350;2023-06-22T08:27:31;11.55;;;10.30;;
6898;SDS011;3488;42.616;23.350;2023-06-22T08:29:58;12.15;;;10.95;;
6898;SDS011;3488;42.616;23.350;2023-06-22T08:32:26;11.27;;;10.00;;
6898;SDS011;3488;42.616;23.350;2023-06-22T08:34:53;14.10;;;10.27;;
6898;SDS011;3488;42.616;23.350;2023-06-22T08:37:22;11.63;;;10.02;;
6898;SDS011;3488;42.616;23.350;2023-06-22T08:39:55;12.15;;;10.25;;
6898;SDS011;3488;42.616;23.350;2023-06-22T08:42:22;11.98;;;10.82;;
6898;SDS011;3488;42.616;23.350;2023-06-22T08:44:50;15.10;;;10.05;;
6898;SDS011;3488;42.616;23.350;2023-06-22T08:47:18;12.02;;;10.77;;
6898;SDS011;3488;42.616;23.350;2023-06-22T08:49:46;11.85;;;10.32;;
6898;SDS011;3488;42.616;23.350;2023-06-22T08:52:14;13.25;;;10.10;;
6898;SDS011;3488;42.616;23.350;2023-06-22T08:54:43;11.32;;;10.18;;
6898;SDS011;3488;42.616;23.350;2023-06-22T08:57:10;14.73;;;10.25;;
6898;SDS011;3488;42.616;23.350;2023-06-22T08:59:37;10.57;;;9.57;;
6898;SDS011;3488;42.616;23.350;2023-06-22T09:02:05;10.85;;;9.85;;
6898;SDS011;3488;42.616;23.350;2023-06-22T09:04:32;13.50;;;10.60;;
6898;SDS011;3488;42.616;23.350;2023-06-22T09:06:59;11.18;;;10.02;;
6898;SDS011;3488;42.616;23.350;2023-06-22T09:09:26;11.13;;;10.02;;
6898;SDS011;3488;42.616;23.350;2023-06-22T09:11:55;10.48;;;9.38;;
6898;SDS011;3488;42.616;23.350;2023-06-22T09:14:22;14.50;;;10.73;;
6898;SDS011;3488;42.616;23.350;2023-06-22T09:16:49;16.42;;;11.00;;
6898;SDS011;3488;42.616;23.350;2023-06-22T09:19:16;11.82;;;10.63;;
6898;SDS011;3488;42.616;23.350;2023-06-22T09:21:43;11.68;;;10.48;;
6898;SDS011;3488;42.616;23.350;2023-06-22T09:24:10;10.07;;;9.05;;
6898;SDS011;3488;42.616;23.350;2023-06-22T09:26:37;14.80;;;10.00;;
6898;SDS011;3488;42.616;23.350;2023-06-22T09:29:06;14.43;;;10.38;;
6898;SDS011;3488;42.616;23.350;2023-06-22T09:31:34;11.55;;;10.52;;
6898;SDS011;3488;42.616;23.350;2023-06-22T09:34:01;10.77;;;9.82;;
6898;SDS011;3488;42.616;23.350;2023-06-22T09:36:28;9.60;;;8.63;;
6898;SDS011;3488;42.616;23.350;2023-06-22T09:38:55;9.13;;;8.23;;
6898;SDS011;3488;42.616;23.350;2023-06-22T09:41:24;9.75;;;8.85;;
6898;SDS011;3488;42.616;23.350;2023-06-22T09:43:51;10.07;;;9.07;;
6898;SDS011;3488;42.616;23.350;2023-06-22T09:46:20;8.98;;;8.18;;
6898;SDS011;3488;42.616;23.350;2023-06-22T09:48:50;13.43;;;8.27;;
6898;SDS011;3488;42.616;23.350;2023-06-22T09:51:17;9.60;;;8.82;;
6898;SDS011;3488;42.616;23.350;2023-06-22T09:53:45;9.90;;;8.93;;
6898;SDS011;3488;42.616;23.350;2023-06-22T09:56:12;8.95;;;8.15;;
6898;SDS011;3488;42.616;23.350;2023-06-22T09:58:40;9.52;;;8.68;;
6898;SDS011;3488;42.616;23.350;2023-06-22T10:01:08;8.75;;;7.88;;
6898;SDS011;3488;42.616;23.350;2023-06-22T10:03:37;18.85;;;8.27;;
6898;SDS011;3488;42.616;23.350;2023-06-22T10:06:05;8.80;;;7.97;;
6898;SDS011;3488;42.616;23.350;2023-06-22T10:08:34;9.65;;;8.18;;
6898;SDS011;3488;42.616;23.350;2023-06-22T10:11:01;8.38;;;7.47;;
6898;SDS011;3488;42.616;23.350;2023-06-22T10:13:28;7.97;;;7.38;;
6898;SDS011;3488;42.616;23.350;2023-06-22T10:15:56;8.73;;;8.02;;
6898;SDS011;3488;42.616;23.350;2023-06-22T10:18:23;8.50;;;7.70;;
6898;SDS011;3488;42.616;23.350;2023-06-22T10:20:52;8.90;;;8.20;;
6898;SDS011;3488;42.616;23.350;2023-06-22T10:23:19;8.07;;;7.32;;
6898;SDS011;3488;42.616;23.350;2023-06-22T10:25:46;9.20;;;8.40;;
6898;SDS011;3488;42.616;23.350;2023-06-22T10:28:14;8.32;;;7.53;;
6898;SDS011;3488;42.616;23.350;2023-06-22T10:30:42;8.88;;;8.18;;
6898;SDS011;3488;42.616;23.350;2023-06-22T10:33:09;10.52;;;7.30;;
6898;SDS011;3488;42.616;23.350;2023-06-22T10:35:37;9.40;;;8.43;;
6898;SDS011;3488;42.616;23.350;2023-06-22T10:38:06;9.85;;;8.07;;
6898;SDS011;3488;42.616;23.350;2023-06-22T10:40:33;8.40;;;7.80;;
6898;SDS011;3488;42.616;23.350;2023-06-22T10:43:00;8.57;;;7.85;;
6898;SDS011;3488;42.616;23.350;2023-06-22T10:45:28;8.77;;;8.02;;
6898;SDS011;3488;42.616;23.350;2023-06-22T10:47:55;8.77;;;7.97;;
6898;SDS011;3488;42.616;23.350;2023-06-22T10:50:22;9.32;;;8.52;;
6898;SDS011;3488;42.616;23.350;2023-06-22T10:52:50;9.07;;;8.25;;
6898;SDS011;3488;42.616;23.350;2023-06-22T10:55:19;8.75;;;7.82;;
6898;SDS011;3488;42.616;23.350;2023-06-22T10:57:47;9.00;;;8.20;;
6898;SDS011;3488;42.616;23.350;2023-06-22T11:00:15;8.43;;;7.80;;
6898;SDS011;3488;42.616;23.350;2023-06-22T11:02:43;9.27;;;8.45;;
6898;SDS011;3488;42.616;23.350;2023-06-22T11:05:10;8.88;;;7.97;;
6898;SDS011;3488;42.616;23.350;2023-06-22T11:07:37;8.90;;;8.13;;
6898;SDS011;3488;42.616;23.350;2023-06-22T11:10:06;9.13;;;8.32;;
6898;SDS011;3488;42.616;23.350;2023-06-22T11:12:35;11.93;;;8.23;;
6898;SDS011;3488;42.616;23.350;2023-06-22T11:15:03;10.13;;;8.18;;
6898;SDS011;3488;42.616;23.350;2023-06-22T11:17:30;9.75;;;8.75;;
6898;SDS011;3488;42.616;23.350;2023-06-22T11:19:57;9.07;;;8.38;;
6898;SDS011;3488;42.616;23.350;2023-06-22T11:22:25;9.02;;;7.72;;
6898;SDS011;3488;42.616;23.350;2023-06-22T11:24:52;10.02;;;8.13;;
6898;SDS011;3488;42.616;23.350;2023-06-22T11:27:19;8.50;;;7.80;;
6898;SDS011;3488;42.616;23.350;2023-06-22T11:29:48;9.25;;;8.43;;
6898;SDS011;3488;42.616;23.350;2023-06-22T11:32:15;7.82;;;7.32;;
6898;SDS011;3488;42.616;23.350;2023-06-22T11:34:42;9.05;;;8.35;;
6898;SDS011;3488;42.616;23.350;2023-06-22T11:37:09;9.13;;;8.32;;
6898;SDS011;3488;42.616;23.350;2023-06-22T11:39:36;9.77;;;8.77;;
6898;SDS011;3488;42.616;23.350;2023-06-22T11:42:03;8.60;;;7.82;;
6898;SDS011;3488;42.616;23.350;2023-06-22T11:44:31;8.88;;;8.07;;
6898;SDS011;3488;42.616;23.350;2023-06-22T11:46:59;11.95;;;8.90;;
6898;SDS011;3488;42.616;23.350;2023-06-22T11:49:29;8.85;;;7.32;;
6898;SDS011;3488;42.616;23.350;2023-06-22T11:51:57;8.52;;;7.70;;
6898;SDS011;3488;42.616;23.350;2023-06-22T11:54:24;8.52;;;7.72;;
6898;SDS011;3488;42.616;23.350;2023-06-22T11:56:51;8.40;;;7.70;;
6898;SDS011;3488;42.616;23.350;2023-06-22T11:59:18;8.23;;;7.47;;
6898;SDS011;3488;42.616;23.350;2023-06-22T12:01:47;9.63;;;8.73;;
6898;SDS011;3488;42.616;23.350;2023-06-22T12:04:17;8.50;;;7.80;;
6898;SDS011;3488;42.616;23.350;2023-06-22T12:06:44;8.15;;;7.47;;
6898;SDS011;3488;42.616;23.350;2023-06-22T12:09:11;8.90;;;7.97;;
6898;SDS011;3488;42.616;23.350;2023-06-22T12:11:38;8.00;;;7.43;;
6898;SDS011;3488;42.616;23.350;2023-06-22T12:14:05;9.57;;;8.57;;
6898;SDS011;3488;42.616;23.350;2023-06-22T12:16:33;8.30;;;7.70;;
6898;SDS011;3488;42.616;23.350;2023-06-22T12:18:59;8.82;;;8.13;;
6898;SDS011;3488;42.616;23.350;2023-06-22T12:21:28;9.77;;;7.82;;
6898;SDS011;3488;42.616;23.350;2023-06-22T12:23:55;8.68;;;7.97;;
6898;SDS011;3488;42.616;23.350;2023-06-22T12:26:22;9.52;;;8.48;;
6898;SDS011;3488;42.616;23.350;2023-06-22T12:28:48;8.90;;;8.10;;
6898;SDS011;3488;42.616;23.350;2023-06-22T12:31:15;8.95;;;8.25;;
6898;SDS011;3488;42.616;23.350;2023-06-22T12:33:42;9.88;;;8.32;;
6898;SDS011;3488;42.616;23.350;2023-06-22T12:36:09;8.73;;;7.75;;
6898;SDS011;3488;42.616;23.350;2023-06-22T12:38:38;9.57;;;8.57;;
6898;SDS011;3488;42.616;23.350;2023-06-22T12:41:05;9.32;;;8.43;;
6898;SDS011;3488;42.616;23.350;2023-06-22T12:43:32;8.65;;;7.85;;
6898;SDS011;3488;42.616;23.350;2023-06-22T12:45:59;12.30;;;11.00;;
6898;SDS011;3488;42.616;23.350;2023-06-22T12:48:26;18.00;;;10.68;;
6898;SDS011;3488;42.616;23.350;2023-06-22T12:50:53;11.63;;;9.95;;
6898;SDS011;3488;42.616;23.350;2023-06-22T12:53:20;14.88;;;10.85;;
6898;SDS011;3488;42.616;23.350;2023-06-22T12:55:50;12.95;;;10.40;;
6898;SDS011;3488;42.616;23.350;2023-06-22T12:58:17;15.60;;;10.93;;
6898;SDS011;3488;42.616;23.350;2023-06-22T13:00:44;17.83;;;11.15;;
6898;SDS011;3488;42.616;23.350;2023-06-22T13:03:14;11.98;;;9.88;;
6898;SDS011;3488;42.616;23.350;2023-06-22T13:05:40;11.70;;;10.43;;
6898;SDS011;3488;42.616;23.350;2023-06-22T13:08:08;12.45;;;10.20;;
6898;SDS011;3488;42.616;23.350;2023-06-22T13:10:36;17.27;;;12.63;;
6898;SDS011;3488;42.616;23.350;2023-06-22T13:13:04;13.38;;;11.52;;
6898;SDS011;3488;42.616;23.350;2023-06-22T13:15:31;14.48;;;10.88;;
6898;SDS011;3488;42.616;23.350;2023-06-22T13:17:58;11.43;;;10.23;;
6898;SDS011;3488;42.616;23.350;2023-06-22T13:20:25;11.55;;;9.98;;
6898;SDS011;3488;42.616;23.350;2023-06-22T13:22:53;9.43;;;8.52;;
6898;SDS011;3488;42.616;23.350;2023-06-22T13:25:21;11.07;;;9.50;;
6898;SDS011;3488;42.616;23.350;2023-06-22T13:27:51;9.73;;;8.82;;
6898;SDS011;3488;42.616;23.350;2023-06-22T13:30:20;10.52;;;9.45;;
6898;SDS011;3488;42.616;23.350;2023-06-22T13:32:46;9.52;;;8.55;;
6898;SDS011;3488;42.616;23.350;2023-06-22T13:35:13;12.15;;;9.95;;
6898;SDS011;3488;42.616;23.350;2023-06-22T13:37:40;11.10;;;9.50;;
6898;SDS011;3488;42.616;23.350;2023-06-22T13:40:07;9.88;;;8.95;;
6898;SDS011;3488;42.616;23.350;2023-06-22T13:42:35;11.63;;;10.52;;
6898;SDS011;3488;42.616;23.350;2023-06-22T13:45:02;10.38;;;9.40;;
6898;SDS011;3488;42.616;23.350;2023-06-22T13:47:31;13.80;;;11.00;;
6898;SDS011;3488;42.616;23.350;2023-06-22T13:49:59;11.90;;;10.27;;
6898;SDS011;3488;42.616;23.350;2023-06-22T13:52:26;12.88;;;10.50;;
6898;SDS011;3488;42.616;23.350;2023-06-22T13:54:53;11.60;;;10.18;;
6898;SDS011;3488;42.616;23.350;2023-06-22T13:57:20;11.20;;;10.13;;
6898;SDS011;3488;42.616;23.350;2023-06-22T13:59:47;12.05;;;10.02;;
6898;SDS011;3488;42.616;23.350;2023-06-22T14:02:14;11.88;;;10.68;;
6898;SDS011;3488;42.616;23.350;2023-06-22T14:04:42;11.40;;;10.23;;
6898;SDS011;3488;42.616;23.350;2023-06-22T14:07:09;12.85;;;10.85;;
6898;SDS011;3488;42.616;23.350;2023-06-22T14:09:36;10.88;;;9.82;;
6898;SDS011;3488;42.616;23.350;2023-06-22T14:12:03;12.32;;;11.02;;
6898;SDS011;3488;42.616;23.350;2023-06-22T14:14:31;13.65;;;10.55;;
6898;SDS011;3488;42.616;23.350;2023-06-22T14:16:58;12.90;;;11.05;;
6898;SDS011;3488;42.616;23.350;2023-06-22T14:19:25;12.57;;;10.90;;
6898;SDS011;3488;42.616;23.350;2023-06-22T14:21:54;12.13;;;10.98;;
6898;SDS011;3488;42.616;23.350;2023-06-22T14:24:22;12.55;;;11.27;;
6898;SDS011;3488;42.616;23.350;2023-06-22T14:26:49;15.27;;;11.75;;
6898;SDS011;3488;42.616;23.350;2023-06-22T14:29:16;12.98;;;10.95;;
6898;SDS011;3488;42.616;23.350;2023-06-22T14:31:44;11.57;;;10.45;;
6898;SDS011;3488;42.616;23.350;2023-06-22T14:34:12;12.82;;;11.48;;
6898;SDS011;3488;42.616;23.350;2023-06-22T14:36:39;10.52;;;9.30;;
6898;SDS011;3488;42.616;23.350;2023-06-22T14:39:08;10.80;;;9.60;;
6898;SDS011;3488;42.616;23.350;2023-06-22T14:41:35;13.00;;;9.55;;
6898;SDS011;3488;42.616;23.350;2023-06-22T14:44:02;10.30;;;9.30;;
6898;SDS011;3488;42.616;23.350;2023-06-22T14:46:29;11.25;;;9.50;;
6898;SDS011;3488;42.616;23.350;2023-06-22T14:48:56;11.00;;;9.88;;
6898;SDS011;3488;42.616;23.350;2023-06-22T14:51:23;12.75;;;8.60;;
6898;SDS011;3488;42.616;23.350;2023-06-22T14:53:51;12.75;;;9.57;;